Hauptseite
METAR-TAF:

METAR-TAF

Flughäfen :

Flugplatz St. Gallen-Altenrhein

St. Gallen, Schweiz

Breite: 47-29-06N, Länge: 009-33-43E, Höhe: 398 m

Beobachtung

Neuester Wetterbericht von vor 27 Minuten, um 07:20 UTC
Wind 5 kt aus Nordwest, variierte zwischen West und Nord
Temperatur 18°C
Luftfeuchtigkeit 64%
Luftdruck 1020 hPa
Sichtweite 10 km oder mehr
keine Wolken unter 1500 m und keine Kumulonimbus oder Gewitterwolken

METAR: LSZR 110720Z 32005KT 270V350 CAVOK 18/11 Q1020 RMK D

Zeit: 09:47 (07:47 UTC)

Prognose

Neuester Wetterbericht von vor 2 Stunden und 22 Minuten, um 05:25 UTC
Gültige Prognose vom 11 um 06 UTC bis 11 um 15 UTC
Wind 2 kt aus unterschiedlichen Richtungen
Sichtweite 10 km oder mehr
keine Wolken unter 1500 m und keine Kumulonimbus oder Gewitterwolken

TAF: LSZR 110525Z 1106/1115 VRB02KT CAVOK

Wetterbeobachtungen und Prognosen von mehr als 4000 Flughäfen (METAR und TAF Bericht).

Die verfügbaren Stationen werden durch gelbe und rote Markierungen auf der Karte dargestellt.

Führen Sie die Maus auf sie, um den Namen der Station zu sehen.

Darauf klicken, um die Beobachtung von Wetterbeobachtungen und Prognosen zu sehen.

Um die Karte zu ändern : klicken Sie auf den grünen Tasten mit einem schwarzen Kreuz Zum Vergrößern, auf den grünen Button mit einem Gedankenstrich zu verkleinern, oder auf die grünen Pfeile für benachbarte Karten.


METAR-TAF: